Time;durP1;ratioP1;P1;durP2;ratioP2;P2;SDS_P1;SDS_P2;PMS_P1;PMS_P2;Temp;Humidity;BMP_temperature;BMP_pressure;BME280_temperature;BME280_humidity;BME280_pressure;Samples;Min_cycle;Max_cycle;Signal;HPM_P1;HPM_P2
2024/03/18 00:00:14;;;;;;;0.10;0.10;;;;;;;33.14;25.16;99370.31;7393084;19;20023;-86
2024/03/18 00:02:42;;;;;;;0.50;0.38;;;;;;;33.08;25.33;99373.66;7393053;19;20041;-86
2024/03/18 00:05:11;;;;;;;7.53;0.45;;;;;;;33.26;25.41;99373.81;7395026;19;20499;-86
2024/03/18 00:07:38;;;;;;;1.95;0.65;;;;;;;33.40;25.21;99374.50;7392943;19;20014;-86
2024/03/18 00:10:04;;;;;;;8.95;0.85;;;;;;;33.41;25.38;99364.44;7393528;19;20508;-86
2024/03/18 00:12:30;;;;;;;0.63;0.47;;;;;;;33.83;24.84;99375.16;7391244;19;20494;-86
2024/03/18 00:14:57;;;;;;;0.10;0.10;;;;;;;33.87;24.70;99363.81;7389799;19;20031;-86
2024/03/18 00:17:23;;;;;;;2.35;1.85;;;;;;;33.86;24.72;99378.91;7394579;19;20029;-86
2024/03/18 00:19:49;;;;;;;0.35;0.35;;;;;;;33.88;24.86;99373.97;7388385;19;20021;-86
2024/03/18 00:22:15;;;;;;;11.35;0.88;;;;;;;33.84;24.53;99375.91;7390184;19;20030;-86
2024/03/18 00:24:41;;;;;;;1.40;0.32;;;;;;;33.87;24.83;99374.63;7389690;19;20025;-85
2024/03/18 00:27:07;;;;;;;0.82;0.77;;;;;;;34.74;24.01;99370.66;7391413;19;20022;-86
2024/03/18 00:29:33;;;;;;;9.18;0.57;;;;;;;34.28;24.34;99358.47;7393834;19;20074;-86
2024/03/18 00:31:59;;;;;;;0.20;0.20;;;;;;;33.67;24.85;99371.53;7392161;19;20022;-86
2024/03/18 00:34:26;;;;;;;5.00;0.85;;;;;;;33.57;24.79;99366.00;7391477;19;20065;-86
2024/03/18 00:36:52;;;;;;;6.32;0.65;;;;;;;33.81;24.72;99372.19;7389722;19;20031;-85
2024/03/18 00:39:18;;;;;;;1.23;0.47;;;;;;;33.61;24.90;99377.00;7389114;19;20030;-86
2024/03/18 00:41:44;;;;;;;0.43;0.30;;;;;;;33.34;24.84;99371.31;7393326;19;20022;-86
2024/03/18 00:44:11;;;;;;;0.43;0.25;;;;;;;33.37;24.81;99381.59;7388114;19;20033;-86
2024/03/18 00:46:37;;;;;;;0.40;0.25;;;;;;;33.45;24.82;99376.19;7389044;19;20019;-86
2024/03/18 00:49:04;;;;;;;0.30;0.30;;;;;;;33.36;25.07;99374.31;7390688;19;20014;-86
2024/03/18 00:51:31;;;;;;;0.10;0.10;;;;;;;33.22;25.18;99371.50;7390648;19;20018;-86
2024/03/18 00:53:58;;;;;;;1.42;0.43;;;;;;;32.99;25.32;99376.75;7392107;19;20065;-86
2024/03/18 00:56:24;;;;;;;1.38;0.75;;;;;;;32.77;25.24;99374.22;7388878;19;20014;-86
2024/03/18 00:58:50;;;;;;;0.20;0.17;;;;;;;32.73;25.19;99382.69;7391743;19;20624;-86
2024/03/18 01:01:16;;;;;;;1.55;0.65;;;;;;;32.17;25.43;99382.56;7391227;19;20014;-86
2024/03/18 01:03:42;;;;;;;3.03;0.57;;;;;;;32.24;25.40;99381.50;7389149;19;20021;-86
2024/03/18 01:06:08;;;;;;;0.95;0.32;;;;;;;32.27;25.01;99383.09;7392312;19;20035;-86
2024/03/18 01:08:34;;;;;;;0.60;0.50;;;;;;;32.27;25.23;99391.75;7389371;19;20014;-86
2024/03/18 01:11:00;;;;;;;0.22;0.22;;;;;;;32.55;25.32;99387.50;7391700;19;20018;-86
2024/03/18 01:13:31;;;;;;;0.68;0.55;;;;;;;32.67;25.20;99388.16;7390218;19;20014;-86
2024/03/18 01:16:01;;;;;;;7.22;0.65;;;;;;;32.92;24.79;99382.22;7392206;19;20022;-86
2024/03/18 01:18:29;;;;;;;0.20;0.20;;;;;;;32.46;24.86;99385.56;7389806;19;20396;-86
2024/03/18 01:20:56;;;;;;;4.75;3.50;;;;;;;32.77;24.80;99377.13;7391423;19;20023;-86
2024/03/18 01:23:24;;;;;;;0.20;0.20;;;;;;;31.89;25.71;99370.22;7389361;19;20018;-85
2024/03/18 01:25:50;;;;;;;0.43;0.43;;;;;;;31.41;25.91;99374.03;7392169;19;20022;-85
2024/03/18 01:28:17;;;;;;;0.63;0.47;;;;;;;31.20;25.89;99377.09;7389770;19;20338;-86
2024/03/18 01:30:43;;;;;;;0.10;0.10;;;;;;;31.07;26.11;99374.91;7389273;19;20391;-85
2024/03/18 01:33:09;;;;;;;3.60;0.60;;;;;;;30.99;26.04;99374.41;7390141;19;20018;-86
2024/03/18 01:35:35;;;;;;;0.20;0.20;;;;;;;30.92;26.10;99372.59;7391701;19;20103;-86
2024/03/18 01:38:03;;;;;;;1.45;0.22;;;;;;;31.50;25.66;99380.22;7391859;19;20030;-86
2024/03/18 01:40:29;;;;;;;0.17;0.17;;;;;;;31.44;25.60;99374.91;7390465;19;20021;-86
2024/03/18 01:42:55;;;;;;;0.22;0.15;;;;;;;31.32;25.93;99374.16;7389095;19;20417;-85
2024/03/18 01:45:23;;;;;;;2.88;1.58;;;;;;;30.85;25.82;99376.44;7391480;19;20058;-87
2024/03/18 01:47:53;;;;;;;0.10;0.10;;;;;;;30.58;26.04;99376.28;7398170;19;20014;-89
2024/03/18 01:50:20;;;;;;;0.70;0.40;;;;;;;30.25;26.22;99387.13;7398006;19;20011;-89
2024/03/18 01:52:47;;;;;;;0.10;0.10;;;;;;;30.12;26.51;99376.28;7397667;19;20007;-87
2024/03/18 01:55:13;;;;;;;0.30;0.30;;;;;;;30.10;26.32;99379.03;7397180;19;20495;-89
2024/03/18 01:57:40;;;;;;;0.28;0.28;;;;;;;30.33;26.15;99385.53;7399050;19;20015;-87
2024/03/18 02:00:15;;;;;;;0.50;0.50;;;;;;;30.44;25.83;99379.03;7399008;19;20014;-89
2024/03/18 02:02:42;;;;;;;0.10;0.10;;;;;;;30.27;25.74;99381.50;7396564;19;20018;-88
2024/03/18 02:05:09;;;;;;;0.20;0.20;;;;;;;30.02;26.15;99384.28;7400360;19;20014;-88
2024/03/18 02:07:36;;;;;;;0.25;0.25;;;;;;;29.98;26.28;99379.00;7397813;19;20026;-88
2024/03/18 02:10:05;;;;;;;1.20;0.40;;;;;;;29.93;26.06;99383.75;7394525;19;20025;-85
2024/03/18 02:12:32;;;;;;;0.20;0.20;;;;;;;29.87;26.08;99374.75;7395994;19;20021;-84
2024/03/18 02:14:59;;;;;;;0.22;0.22;;;;;;;29.81;26.38;99377.25;7393021;19;20022;-84
2024/03/18 02:17:25;;;;;;;0.38;0.38;;;;;;;29.92;25.99;99381.50;7393558;19;20468;-84
2024/03/18 02:19:51;;;;;;;0.10;0.10;;;;;;;29.94;25.70;99378.75;7394165;19;20376;-85
2024/03/18 02:22:17;;;;;;;0.40;0.40;;;;;;;29.66;26.10;99366.22;7394494;19;20006;-84
2024/03/18 02:24:43;;;;;;;0.65;0.65;;;;;;;29.60;26.38;99365.84;7394321;19;20037;-84
2024/03/18 02:27:11;;;;;;;0.20;0.20;;;;;;;29.58;26.43;99362.84;7394511;19;20486;-84
2024/03/18 02:29:38;;;;;;;0.52;0.52;;;;;;;29.63;26.19;99361.72;7394325;19;20018;-85
2024/03/18 02:32:05;;;;;;;3.42;2.50;;;;;;;29.57;26.34;99367.06;7394012;19;20114;-84
2024/03/18 02:34:35;;;;;;;0.10;0.10;;;;;;;29.42;26.44;99370.41;7396974;19;20038;-85
2024/03/18 02:37:02;;;;;;;0.60;0.47;;;;;;;29.21;26.55;99374.09;7393877;19;20022;-84
2024/03/18 02:39:30;;;;;;;1.00;0.47;;;;;;;29.40;26.53;99373.13;7391536;19;20492;-84
2024/03/18 02:41:56;;;;;;;0.45;0.45;;;;;;;29.53;26.09;99375.41;7391650;19;20547;-84
2024/03/18 02:44:22;;;;;;;0.30;0.30;;;;;;;29.41;25.92;99380.34;7393797;19;20402;-84
2024/03/18 02:46:50;;;;;;;0.28;0.28;;;;;;;29.61;26.02;99381.66;7392854;19;20358;-84
2024/03/18 02:49:16;;;;;;;5.68;0.82;;;;;;;29.68;26.18;99377.06;7394544;19;20368;-84
2024/03/18 02:51:42;;;;;;;0.35;0.35;;;;;;;29.63;25.80;99372.44;7393440;19;20089;-84
2024/03/18 02:54:08;;;;;;;5.38;0.93;;;;;;;29.66;25.89;99377.69;7395847;19;20026;-84
2024/03/18 02:56:34;;;;;;;3.50;0.40;;;;;;;29.23;26.40;99382.06;7392363;19;20022;-84
2024/03/18 02:59:00;;;;;;;5.03;0.80;;;;;;;29.35;26.09;99364.88;7393160;19;20023;-84
2024/03/18 03:01:28;;;;;;;0.43;0.43;;;;;;;29.06;26.33;99371.59;7392903;19;20010;-84
2024/03/18 03:03:54;;;;;;;0.70;0.70;;;;;;;29.07;26.20;99370.25;7393255;19;20098;-84
2024/03/18 03:06:21;;;;;;;0.28;0.28;;;;;;;28.83;26.22;99379.34;7395481;19;20025;-84
2024/03/18 03:08:47;;;;;;;0.55;0.50;;;;;;;28.66;26.53;99371.78;7393191;19;20018;-84
2024/03/18 03:11:14;;;;;;;0.35;0.35;;;;;;;28.74;26.53;99371.56;7394458;19;20026;-84
2024/03/18 03:13:40;;;;;;;0.38;0.38;;;;;;;28.74;26.30;99365.84;7392349;19;20073;-85
2024/03/18 03:16:10;;;;;;;0.30;0.30;;;;;;;28.50;26.69;99370.66;7391185;19;20014;-84
2024/03/18 03:18:36;;;;;;;0.30;0.30;;;;;;;28.37;26.40;99363.31;7397712;19;20405;-84
2024/03/18 03:21:06;;;;;;;7.88;0.93;;;;;;;28.32;26.54;99367.28;7393839;19;20367;-84
2024/03/18 03:23:34;;;;;;;0.30;0.30;;;;;;;28.38;26.71;99370.56;7393267;19;20015;-84
2024/03/18 03:26:01;;;;;;;0.20;0.20;;;;;;;28.69;26.04;99369.78;7391374;19;20106;-83
2024/03/18 03:28:28;;;;;;;0.20;0.20;;;;;;;28.67;25.97;99363.94;7394390;19;20015;-84
2024/03/18 03:31:13;;;;;;;0.40;0.40;;;;;;;28.53;26.03;99367.31;7394066;19;20049;-84
2024/03/18 03:33:39;;;;;;;0.65;0.65;;;;;;;28.78;26.09;99368.97;7395503;19;20026;-84
2024/03/18 03:36:06;;;;;;;0.30;0.30;;;;;;;28.82;26.15;99374.97;7395906;19;20010;-84
2024/03/18 03:38:32;;;;;;;0.63;0.63;;;;;;;28.67;26.26;99390.47;7392598;19;20077;-84
2024/03/18 03:41:00;;;;;;;1.60;0.75;;;;;;;28.52;26.36;99385.13;7395492;19;20022;-84
2024/03/18 03:43:26;;;;;;;1.08;0.90;;;;;;;28.51;26.17;99392.19;7392907;19;20463;-84
2024/03/18 03:45:59;;;;;;;0.60;0.38;;;;;;;28.79;25.76;99390.53;7391606;19;20074;-83
2024/03/18 03:48:26;;;;;;;0.22;0.22;;;;;;;28.73;25.39;99393.00;7392913;19;20014;-84
2024/03/18 03:50:54;;;;;;;0.95;0.68;;;;;;;28.62;25.93;99394.44;7393664;19;20041;-84
2024/03/18 03:53:22;;;;;;;0.20;0.20;;;;;;;28.56;25.70;99401.81;7391833;19;20025;-83
2024/03/18 03:55:52;;;;;;;0.25;0.25;;;;;;;27.62;26.57;99405.94;7391873;19;20135;-84
2024/03/18 03:58:19;;;;;;;2.45;0.52;;;;;;;27.33;27.03;99407.31;7391436;19;20014;-84
2024/03/18 04:00:46;;;;;;;1.08;0.88;;;;;;;27.22;27.08;99402.22;7392862;19;20018;-84
2024/03/18 04:03:15;;;;;;;0.40;0.40;;;;;;;27.14;27.20;99404.47;7396325;19;20018;-84
2024/03/18 04:05:41;;;;;;;0.40;0.40;;;;;;;27.22;26.64;99413.66;7393623;19;20403;-84
2024/03/18 04:08:08;;;;;;;0.68;0.68;;;;;;;26.87;27.08;99408.22;7389588;19;20516;-83
2024/03/18 04:10:34;;;;;;;0.40;0.40;;;;;;;26.84;26.90;99398.00;7392658;19;20026;-84
2024/03/18 04:13:00;;;;;;;0.20;0.20;;;;;;;26.82;27.03;99400.69;7390807;19;20018;-84
2024/03/18 04:15:27;;;;;;;0.73;0.73;;;;;;;26.90;27.34;99412.72;7394475;19;20015;-84
2024/03/18 04:17:54;;;;;;;0.20;0.20;;;;;;;26.52;27.08;99412.66;7392196;19;20344;-84
2024/03/18 04:20:24;;;;;;;3.00;0.88;;;;;;;26.40;27.73;99416.69;7392390;19;20015;-84
2024/03/18 04:22:52;;;;;;;2.20;0.35;;;;;;;26.33;27.39;99420.41;7390301;19;20018;-84
2024/03/18 04:25:23;;;;;;;0.40;0.40;;;;;;;26.40;27.49;99411.69;7390702;19;20026;-84
2024/03/18 04:27:49;;;;;;;0.13;0.13;;;;;;;26.35;27.20;99418.47;7395922;19;20026;-84
2024/03/18 04:30:17;;;;;;;2.75;0.40;;;;;;;26.26;27.26;99414.22;7390670;19;20015;-84
2024/03/18 04:32:43;;;;;;;0.45;0.45;;;;;;;26.20;27.35;99410.16;7389677;19;20018;-83
2024/03/18 04:35:11;;;;;;;0.20;0.20;;;;;;;26.44;27.27;99408.41;7392952;19;20033;-84
2024/03/18 04:37:47;;;;;;;0.40;0.40;;;;;;;26.09;27.44;99419.25;7392791;19;20488;-84
2024/03/18 04:40:14;;;;;;;0.40;0.40;;;;;;;26.13;27.70;99414.63;7390412;19;20420;-84
2024/03/18 04:42:40;;;;;;;0.47;0.47;;;;;;;26.01;27.24;99415.75;7389341;19;20006;-83
2024/03/18 04:45:07;;;;;;;1.23;0.47;;;;;;;25.96;27.82;99411.81;7389913;19;20026;-84
2024/03/18 04:47:40;;;;;;;0.30;0.30;;;;;;;25.86;27.72;99422.41;7393918;19;20022;-84
2024/03/18 04:50:08;;;;;;;0.43;0.43;;;;;;;25.85;27.55;99420.16;7391426;19;20026;-83
2024/03/18 04:52:35;;;;;;;3.13;0.50;;;;;;;26.10;27.36;99417.91;7389658;19;20010;-84
2024/03/18 04:55:05;;;;;;;0.57;0.57;;;;;;;26.06;27.68;99415.47;7389243;19;20476;-84
2024/03/18 04:57:33;;;;;;;0.70;0.30;;;;;;;26.12;27.65;99418.06;7389491;19;20101;-84
2024/03/18 04:59:59;;;;;;;0.68;0.68;;;;;;;26.16;27.89;99421.25;7386950;19;20014;-84
2024/03/18 05:02:25;;;;;;;0.35;0.35;;;;;;;25.98;27.54;99429.09;7388178;19;20022;-83
2024/03/18 05:04:52;;;;;;;1.30;0.57;;;;;;;26.76;27.08;99420.25;7391455;19;20029;-84
2024/03/18 05:07:18;;;;;;;1.00;0.50;;;;;;;27.35;26.74;99421.78;7391395;19;20018;-83
2024/03/18 05:09:45;;;;;;;0.30;0.30;;;;;;;27.29;26.28;99424.19;7389776;19;20487;-83
2024/03/18 05:12:12;;;;;;;0.40;0.40;;;;;;;27.28;26.09;99419.81;7388604;19;20019;-84
2024/03/18 05:14:39;;;;;;;0.68;0.50;;;;;;;27.00;26.52;99427.03;7388277;19;20013;-84
2024/03/18 05:17:05;;;;;;;0.30;0.30;;;;;;;26.98;26.51;99424.75;7388139;19;20556;-84
2024/03/18 05:19:32;;;;;;;0.60;0.60;;;;;;;26.98;26.13;99421.19;7385041;19;20350;-84
2024/03/18 05:21:58;;;;;;;4.22;0.70;;;;;;;26.66;26.78;99416.56;7386567;19;20456;-84
2024/03/18 05:24:24;;;;;;;2.60;1.25;;;;;;;27.01;26.47;99417.09;7387540;19;20070;-83
2024/03/18 05:26:50;;;;;;;0.22;0.22;;;;;;;27.08;26.29;99415.44;7387755;19;20022;-83
2024/03/18 05:29:16;;;;;;;7.43;0.60;;;;;;;27.01;26.41;99422.81;7388272;19;20357;-84
2024/03/18 05:31:45;;;;;;;0.70;0.70;;;;;;;26.95;25.99;99428.09;7388535;19;20017;-84
2024/03/18 05:34:11;;;;;;;0.25;0.25;;;;;;;26.97;26.34;99429.00;7390366;19;20014;-84
2024/03/18 05:36:37;;;;;;;0.30;0.30;;;;;;;27.08;26.11;99429.75;7386677;19;20018;-84
2024/03/18 05:39:04;;;;;;;0.40;0.32;;;;;;;27.16;25.77;99433.22;7391058;19;20361;-84
2024/03/18 05:41:30;;;;;;;2.75;0.63;;;;;;;27.00;26.09;99429.91;7387607;19;20472;-84
2024/03/18 05:43:57;;;;;;;0.40;0.40;;;;;;;26.88;26.37;99426.88;7387904;19;20371;-84
2024/03/18 05:46:23;;;;;;;0.20;0.20;;;;;;;26.97;26.07;99434.72;7386468;19;20022;-84
2024/03/18 05:48:51;;;;;;;0.20;0.20;;;;;;;26.93;26.13;99440.13;7387761;19;20372;-84
2024/03/18 05:51:17;;;;;;;0.40;0.40;;;;;;;26.98;26.14;99438.31;7390107;19;20021;-83
2024/03/18 05:53:43;;;;;;;0.30;0.30;;;;;;;27.00;26.07;99433.53;7388514;19;20022;-84
2024/03/18 05:56:09;;;;;;;0.60;0.60;;;;;;;26.93;26.21;99433.66;7386146;19;20485;-84
2024/03/18 05:58:41;;;;;;;0.35;0.35;;;;;;;26.90;26.16;99427.03;7387010;19;20010;-84
2024/03/18 06:01:11;;;;;;;0.50;0.50;;;;;;;27.18;26.19;99424.78;7388362;19;20035;-83
2024/03/18 06:03:38;;;;;;;0.40;0.40;;;;;;;26.93;26.26;99428.69;7391290;19;20502;-84
2024/03/18 06:06:08;;;;;;;0.20;0.20;;;;;;;26.84;26.09;99429.44;7393394;19;20011;-84
2024/03/18 06:08:34;;;;;;;0.40;0.40;;;;;;;26.76;26.23;99425.97;7389797;19;20015;-83
2024/03/18 06:11:00;;;;;;;0.77;0.77;;;;;;;26.87;25.90;99425.38;7390633;19;20465;-84
2024/03/18 06:13:27;;;;;;;2.38;0.88;;;;;;;27.92;25.45;99424.53;7388837;19;20421;-84
2024/03/18 06:15:53;;;;;;;17.48;1.30;;;;;;;28.17;25.21;99430.69;7387155;19;20024;-83
2024/03/18 06:18:19;;;;;;;2.00;0.70;;;;;;;28.33;25.41;99426.06;7389593;19;20022;-84
2024/03/18 06:20:49;;;;;;;1.08;0.45;;;;;;;28.34;25.12;99433.31;7389213;19;20022;-83
2024/03/18 06:23:18;;;;;;;0.73;0.73;;;;;;;28.42;25.26;99428.13;7387293;19;20096;-84
2024/03/18 06:25:59;;;;;;;0.55;0.55;;;;;;;28.91;24.63;99429.38;7388354;19;20026;-84
2024/03/18 06:28:36;;;;;;;10.85;2.05;;;;;;;29.30;24.49;99431.97;7389258;19;20018;-85
2024/03/18 06:31:02;;;;;;;0.40;0.40;;;;;;;29.44;24.65;99430.78;7389656;19;20423;-84
2024/03/18 06:33:28;;;;;;;0.30;0.30;;;;;;;29.47;24.79;99425.94;7396764;19;20026;-85
2024/03/18 06:35:56;;;;;;;1.30;0.90;;;;;;;29.39;25.20;99428.28;7397051;19;20025;-85
2024/03/18 06:38:23;;;;;;;9.55;0.40;;;;;;;29.75;25.30;99425.69;7399611;19;20349;-84
2024/03/18 06:40:50;;;;;;;0.28;0.28;;;;;;;30.02;24.98;99424.47;7395710;19;20026;-85
2024/03/18 06:43:16;;;;;;;0.47;0.38;;;;;;;30.05;25.02;99429.72;7395859;19;20011;-85
2024/03/18 06:45:42;;;;;;;0.30;0.30;;;;;;;30.17;25.21;99429.75;7394894;19;20029;-84
2024/03/18 06:48:08;;;;;;;5.18;1.45;;;;;;;30.24;25.30;99437.34;7399962;19;20529;-85
2024/03/18 06:50:35;;;;;;;9.27;1.50;;;;;;;30.28;24.93;99428.97;7396008;19;20500;-85
2024/03/18 06:53:02;;;;;;;2.67;1.33;;;;;;;30.36;25.17;99429.53;7393926;19;20018;-85
2024/03/18 06:55:34;;;;;;;5.40;1.63;;;;;;;30.39;25.07;99440.50;7394845;19;20010;-84
2024/03/18 06:58:04;;;;;;;11.75;2.53;;;;;;;30.66;24.97;99440.00;7397088;19;20030;-86
2024/03/18 07:00:31;;;;;;;4.40;2.30;;;;;;;30.50;24.96;99445.50;7394308;19;20014;-86
2024/03/18 07:02:57;;;;;;;9.38;1.92;;;;;;;30.52;24.96;99445.63;7392987;19;20018;-86
2024/03/18 07:05:24;;;;;;;9.40;2.53;;;;;;;30.78;25.07;99437.84;7395829;19;20514;-85
2024/03/18 07:07:51;;;;;;;11.05;1.92;;;;;;;30.69;24.97;99444.47;7395317;19;20050;-85
2024/03/18 07:10:18;;;;;;;1.00;1.00;;;;;;;30.83;24.98;99448.22;7399515;19;20054;-86
2024/03/18 07:12:46;;;;;;;1.55;1.00;;;;;;;30.90;25.03;99446.50;7392714;19;20489;-85
2024/03/18 07:15:15;;;;;;;0.77;0.65;;;;;;;30.98;24.95;99456.34;7392744;19;20019;-86
2024/03/18 07:17:41;;;;;;;0.75;0.75;;;;;;;31.17;24.95;99447.41;7392894;19;20057;-85
2024/03/18 07:20:11;;;;;;;1.33;1.23;;;;;;;31.18;24.77;99448.19;7392697;19;20025;-85
2024/03/18 07:22:41;;;;;;;1.02;1.00;;;;;;;31.12;24.39;99451.44;7395765;19;20010;-85
2024/03/18 07:25:10;;;;;;;1.23;0.80;;;;;;;31.17;24.75;99444.53;7391873;19;20440;-85
2024/03/18 07:27:39;;;;;;;0.90;0.50;;;;;;;31.27;24.47;99442.25;7394177;19;20019;-85
2024/03/18 07:30:07;;;;;;;0.40;0.40;;;;;;;31.30;24.42;99443.88;7392572;19;20018;-85
2024/03/18 07:32:33;;;;;;;0.75;0.75;;;;;;;31.22;24.47;99440.53;7395960;19;20025;-85
2024/03/18 07:34:59;;;;;;;1.23;1.23;;;;;;;31.17;24.33;99441.66;7396078;19;20074;-85
2024/03/18 07:37:28;;;;;;;1.58;0.65;;;;;;;30.82;24.83;99443.84;7390910;19;20022;-85
2024/03/18 07:39:54;;;;;;;1.00;1.00;;;;;;;30.61;25.09;99446.88;7392031;19;20014;-85
2024/03/18 07:42:21;;;;;;;0.47;0.47;;;;;;;30.65;25.25;99450.75;7391834;19;20014;-85
2024/03/18 07:44:47;;;;;;;1.20;0.85;;;;;;;30.38;25.19;99444.03;7389560;19;20033;-85
2024/03/18 07:47:13;;;;;;;24.55;4.38;;;;;;;30.52;25.65;99447.75;7392988;19;20014;-85
2024/03/18 07:49:39;;;;;;;5.05;1.50;;;;;;;30.54;25.07;99445.75;7392538;19;20015;-80
2024/03/18 07:52:06;;;;;;;2.92;1.05;;;;;;;30.69;25.55;99447.34;7393002;19;20014;-86
2024/03/18 07:54:33;;;;;;;5.45;0.88;;;;;;;30.90;25.46;99444.38;7391173;19;20667;-86
2024/03/18 07:57:00;;;;;;;8.82;0.88;;;;;;;31.19;25.53;99447.53;7389550;19;20010;-80
2024/03/18 07:59:26;;;;;;;2.10;1.20;;;;;;;31.51;25.67;99451.59;7391275;19;20393;-85
2024/03/18 08:01:52;;;;;;;2.70;1.52;;;;;;;32.20;25.34;99446.81;7392989;19;20025;-85
2024/03/18 08:04:19;;;;;;;2.67;1.38;;;;;;;32.28;25.44;99450.91;7392226;19;20010;-85
2024/03/18 08:06:46;;;;;;;1.00;0.90;;;;;;;32.46;25.63;99443.25;7390609;19;20025;-85
2024/03/18 08:09:14;;;;;;;2.75;1.13;;;;;;;32.62;25.67;99438.34;7393454;19;20478;-85
2024/03/18 08:11:45;;;;;;;0.82;0.82;;;;;;;33.09;25.47;99443.69;7391222;19;20026;-85
2024/03/18 08:14:11;;;;;;;6.38;1.33;;;;;;;33.07;25.54;99449.34;7392705;19;20019;-85
2024/03/18 08:16:38;;;;;;;0.93;0.93;;;;;;;33.41;25.66;99445.31;7391373;19;20010;-85
2024/03/18 08:19:04;;;;;;;2.10;0.50;;;;;;;33.54;25.44;99447.44;7392596;19;20014;-86
2024/03/18 08:21:31;;;;;;;2.92;1.30;;;;;;;33.63;25.62;99449.31;7392851;19;20371;-86
2024/03/18 08:23:58;;;;;;;2.38;0.55;;;;;;;33.77;25.69;99458.66;7393240;19;20041;-85
2024/03/18 08:26:24;;;;;;;0.98;0.68;;;;;;;34.07;25.56;99460.16;7389760;19;20022;-86
2024/03/18 08:28:51;;;;;;;2.47;0.63;;;;;;;34.25;25.75;99452.34;7390930;19;20014;-85
2024/03/18 08:31:17;;;;;;;0.52;0.38;;;;;;;34.69;25.34;99452.88;7392461;19;20325;-86
2024/03/18 08:33:43;;;;;;;5.68;0.68;;;;;;;34.85;25.34;99445.66;7392129;19;20045;-84
2024/03/18 08:36:09;;;;;;;0.55;0.55;;;;;;;34.46;25.77;99459.06;7390281;19;20014;-85
2024/03/18 08:38:35;;;;;;;2.80;0.55;;;;;;;34.57;25.88;99449.44;7394634;19;20098;-86
2024/03/18 08:41:01;;;;;;;3.75;0.95;;;;;;;34.38;25.75;99450.00;7391607;19;20460;-85
2024/03/18 08:43:27;;;;;;;4.85;0.52;;;;;;;34.34;26.08;99456.34;7391016;19;20018;-85
2024/03/18 08:45:55;;;;;;;0.77;0.28;;;;;;;34.43;25.93;99445.88;7390462;19;20014;-85
2024/03/18 08:48:21;;;;;;;0.17;0.17;;;;;;;34.51;26.34;99434.72;7395853;19;20425;-86
2024/03/18 08:50:48;;;;;;;0.65;0.65;;;;;;;34.50;25.93;99444.78;7390653;19;20014;-85
2024/03/18 08:53:15;;;;;;;0.77;0.68;;;;;;;34.34;25.91;99444.78;7391439;19;20018;-85
2024/03/18 08:55:44;;;;;;;0.10;0.10;;;;;;;34.50;25.60;99445.53;7389628;19;20033;-86
2024/03/18 08:58:10;;;;;;;0.85;0.20;;;;;;;34.10;26.11;99449.44;7392555;19;20018;-85
2024/03/18 09:00:36;;;;;;;11.82;0.90;;;;;;;34.33;25.93;99449.81;7389373;19;20033;-86
2024/03/18 09:03:03;;;;;;;0.47;0.30;;;;;;;34.90;25.83;99447.34;7387245;19;20007;-86
2024/03/18 09:05:30;;;;;;;0.40;0.40;;;;;;;35.17;25.69;99445.59;7391544;19;20023;-85
2024/03/18 09:08:01;;;;;;;4.47;0.45;;;;;;;35.53;25.82;99447.16;7391288;19;20014;-85
2024/03/18 09:10:27;;;;;;;0.68;0.15;;;;;;;35.83;25.81;99447.63;7390951;19;20085;-85
2024/03/18 09:12:53;;;;;;;14.32;2.63;;;;;;;35.98;25.64;99455.50;7389972;19;20018;-86
2024/03/18 09:15:19;;;;;;;20.17;1.55;;;;;;;35.95;25.22;99456.81;7387421;19;20019;-86
2024/03/18 09:17:45;;;;;;;9.80;1.15;;;;;;;35.74;25.88;99447.31;7391846;19;20440;-85
2024/03/18 09:20:17;;;;;;;1.00;0.47;;;;;;;35.43;25.86;99456.13;7387465;19;20019;-85
2024/03/18 09:22:43;;;;;;;3.75;1.23;;;;;;;35.41;25.74;99453.16;7388766;19;20493;-85
2024/03/18 09:25:09;;;;;;;1.20;0.55;;;;;;;35.51;25.98;99456.50;7388187;19;20019;-86
2024/03/18 09:27:36;;;;;;;3.97;0.43;;;;;;;35.49;25.58;99453.53;7390112;19;20456;-85
2024/03/18 09:30:03;;;;;;;0.30;0.30;;;;;;;35.52;25.55;99455.09;7387099;19;20011;-85
2024/03/18 09:32:30;;;;;;;1.48;0.20;;;;;;;35.42;25.71;99457.56;7386991;19;20021;-85
2024/03/18 09:34:58;;;;;;;0.68;0.63;;;;;;;35.28;25.84;99448.25;7392579;19;20048;-86
2024/03/18 09:37:28;;;;;;;0.50;0.20;;;;;;;35.21;25.66;99452.31;7390610;19;20472;-86
2024/03/18 09:39:55;;;;;;;0.30;0.23;;;;;;;35.36;26.02;99456.56;7388078;19;20029;-85
2024/03/18 09:42:21;;;;;;;0.30;0.30;;;;;;;36.05;25.28;99460.13;7387599;19;20022;-85
2024/03/18 09:44:49;;;;;;;2.58;0.93;;;;;;;36.50;25.41;99451.75;7387908;19;20022;-85
2024/03/18 09:47:26;;;;;;;0.35;0.22;;;;;;;36.63;25.50;99452.94;7390010;19;20038;-85
2024/03/18 09:49:53;;;;;;;2.60;0.50;;;;;;;36.70;24.89;99458.31;7389115;19;20032;-85
2024/03/18 09:52:20;;;;;;;0.65;0.22;;;;;;;36.66;25.00;99457.41;7387994;19;20022;-85
2024/03/18 09:54:50;;;;;;;7.22;1.17;;;;;;;36.58;25.38;99451.31;7386869;19;20259;-85
2024/03/18 09:57:23;;;;;;;11.30;0.82;;;;;;;36.92;25.21;99452.59;7389889;19;20019;-85
2024/03/18 09:59:51;;;;;;;3.60;0.20;;;;;;;36.91;25.27;99454.75;7385699;19;20029;-85
2024/03/18 10:02:17;;;;;;;0.20;0.20;;;;;;;36.85;25.32;99450.84;7385897;19;20043;-85
2024/03/18 10:04:46;;;;;;;8.85;0.57;;;;;;;37.04;25.15;99455.91;7388854;19;20039;-85
2024/03/18 10:07:14;;;;;;;0.47;0.47;;;;;;;36.95;25.47;99449.06;7395202;19;20010;-84
2024/03/18 10:09:44;;;;;;;12.48;1.38;;;;;;;36.93;24.89;99448.25;7394749;19;20024;-85
2024/03/18 10:12:12;;;;;;;4.45;0.98;;;;;;;36.98;24.97;99444.84;7395174;19;20014;-84
2024/03/18 10:14:39;;;;;;;2.83;0.73;;;;;;;37.16;25.07;99445.47;7391593;19;20010;-84
2024/03/18 10:17:11;;;;;;;2.72;0.60;;;;;;;37.31;24.89;99443.03;7391703;19;20014;-85
2024/03/18 10:19:38;;;;;;;2.42;0.43;;;;;;;37.28;25.26;99450.19;7393760;19;20086;-82
2024/03/18 10:22:09;;;;;;;0.57;0.15;;;;;;;36.87;25.54;99442.97;7392396;19;20006;-85
2024/03/18 10:24:39;;;;;;;4.95;0.60;;;;;;;37.09;25.27;99445.94;7392197;19;20018;-85
2024/03/18 10:27:05;;;;;;;3.20;0.55;;;;;;;37.33;24.92;99446.00;7395735;19;20027;-85
2024/03/18 10:29:31;;;;;;;8.77;1.27;;;;;;;37.19;25.07;99449.16;7395907;19;20023;-85
2024/03/18 10:31:58;;;;;;;3.40;0.85;;;;;;;37.20;25.25;99450.66;7398530;19;20021;-84
2024/03/18 10:34:24;;;;;;;7.43;0.70;;;;;;;36.99;25.45;99439.78;7397122;19;20018;-85
2024/03/18 10:36:51;;;;;;;5.05;0.95;;;;;;;37.36;24.94;99444.69;7392737;19;20022;-85
2024/03/18 10:39:36;;;;;;;6.78;0.95;;;;;;;37.71;24.55;99450.19;7395689;19;20015;-85
2024/03/18 10:42:04;;;;;;;0.10;0.10;;;;;;;37.61;25.04;99441.91;7399763;19;20010;-86
2024/03/18 10:44:37;;;;;;;0.43;0.40;;;;;;;37.73;24.95;99447.34;7398907;19;20018;-85
2024/03/18 10:47:04;;;;;;;1.52;0.25;;;;;;;37.55;25.08;99443.88;7395277;19;20018;-85
2024/03/18 10:49:30;;;;;;;0.45;0.32;;;;;;;37.04;25.07;99447.94;7396174;19;20463;-85
2024/03/18 10:51:58;;;;;;;0.40;0.30;;;;;;;36.95;25.44;99442.53;7396212;19;20003;-85
2024/03/18 10:54:26;;;;;;;0.80;0.40;;;;;;;36.78;25.10;99441.19;7397271;19;20022;-86
2024/03/18 10:56:52;;;;;;;0.70;0.60;;;;;;;36.63;25.17;99447.88;7392217;19;20037;-85
2024/03/18 10:59:19;;;;;;;5.50;0.40;;;;;;;36.58;25.21;99446.25;7395639;19;20049;-85
2024/03/18 11:01:46;;;;;;;0.17;0.00;;;;;;;36.79;25.09;99445.59;7394693;19;20017;-85
2024/03/18 11:04:28;;;;;;;0.38;0.38;;;;;;;36.74;25.42;99451.91;7398804;19;20479;-85
2024/03/18 11:06:55;;;;;;;0.10;0.10;;;;;;;36.49;25.32;99439.41;7395110;19;20049;-85
2024/03/18 11:09:23;;;;;;;0.65;0.28;;;;;;;36.57;25.24;99450.56;7395559;19;20356;-85
2024/03/18 11:11:50;;;;;;;20.08;0.85;;;;;;;37.51;24.78;99455.38;7395108;19;20041;-86
2024/03/18 11:14:27;;;;;;;1.65;0.20;;;;;;;37.78;24.55;99448.97;7392324;19;20429;-85
2024/03/18 11:16:54;;;;;;;1.55;0.40;;;;;;;37.53;24.90;99458.34;7388196;19;20374;-86
2024/03/18 11:19:26;;;;;;;1.75;1.13;;;;;;;37.42;24.54;99453.63;7389499;19;20078;-85
2024/03/18 11:22:06;;;;;;;1.65;0.52;;;;;;;37.51;24.68;99455.38;7387858;19;20015;-85
2024/03/18 11:24:32;;;;;;;0.43;0.40;;;;;;;37.05;25.38;99463.22;7387829;19;20022;-85
2024/03/18 11:27:00;;;;;;;1.65;0.40;;;;;;;37.11;25.27;99461.28;7393135;19;20018;-85
2024/03/18 11:29:35;;;;;;;0.57;0.10;;;;;;;36.92;25.19;99467.09;7388199;19;20500;-85
2024/03/18 11:32:02;;;;;;;0.30;0.00;;;;;;;36.87;25.19;99462.53;7393458;19;20014;-85
2024/03/18 11:34:31;;;;;;;4.03;0.50;;;;;;;36.84;24.83;99467.50;7394543;19;20014;-85